sensor_id;sensor_type;location;lat;lon;timestamp;P1;durP1;ratioP1;P2;durP2;ratioP2
6420;SDS011;3243;50.958;7.012;2023-02-19T00:01:21;5.30;;;4.80;;
6420;SDS011;3243;50.958;7.012;2023-02-19T00:03:50;5.50;;;5.00;;
6420;SDS011;3243;50.958;7.012;2023-02-19T00:06:23;5.77;;;5.23;;
6420;SDS011;3243;50.958;7.012;2023-02-19T00:08:50;6.13;;;4.80;;
6420;SDS011;3243;50.958;7.012;2023-02-19T00:11:18;6.67;;;5.57;;
6420;SDS011;3243;50.958;7.012;2023-02-19T00:13:48;5.80;;;5.03;;
6420;SDS011;3243;50.958;7.012;2023-02-19T00:16:21;6.33;;;5.73;;
6420;SDS011;3243;50.958;7.012;2023-02-19T00:19:07;18.37;;;10.63;;
6420;SDS011;3243;50.958;7.012;2023-02-19T00:21:37;11.27;;;8.13;;
6420;SDS011;3243;50.958;7.012;2023-02-19T00:24:04;11.93;;;8.77;;
6420;SDS011;3243;50.958;7.012;2023-02-19T00:26:32;8.80;;;6.87;;
6420;SDS011;3243;50.958;7.012;2023-02-19T00:28:59;8.70;;;6.50;;
6420;SDS011;3243;50.958;7.012;2023-02-19T00:31:28;7.00;;;6.30;;
6420;SDS011;3243;50.958;7.012;2023-02-19T00:33:59;6.90;;;6.20;;
6420;SDS011;3243;50.958;7.012;2023-02-19T00:36:27;6.03;;;5.43;;
6420;SDS011;3243;50.958;7.012;2023-02-19T00:38:57;5.70;;;5.10;;
6420;SDS011;3243;50.958;7.012;2023-02-19T00:41:24;8.53;;;5.57;;
6420;SDS011;3243;50.958;7.012;2023-02-19T00:43:58;5.77;;;5.20;;
6420;SDS011;3243;50.958;7.012;2023-02-19T00:46:27;5.73;;;5.17;;
6420;SDS011;3243;50.958;7.012;2023-02-19T00:48:59;5.47;;;4.97;;
6420;SDS011;3243;50.958;7.012;2023-02-19T00:51:27;5.50;;;5.00;;
6420;SDS011;3243;50.958;7.012;2023-02-19T00:53:56;6.07;;;5.37;;
6420;SDS011;3243;50.958;7.012;2023-02-19T00:56:23;8.43;;;6.03;;
6420;SDS011;3243;50.958;7.012;2023-02-19T00:58:49;6.03;;;5.40;;
6420;SDS011;3243;50.958;7.012;2023-02-19T01:01:17;7.13;;;6.43;;
6420;SDS011;3243;50.958;7.012;2023-02-19T01:03:44;8.67;;;6.20;;
6420;SDS011;3243;50.958;7.012;2023-02-19T01:06:12;7.90;;;5.73;;
6420;SDS011;3243;50.958;7.012;2023-02-19T01:08:40;7.30;;;5.90;;
6420;SDS011;3243;50.958;7.012;2023-02-19T01:11:08;6.20;;;5.60;;
6420;SDS011;3243;50.958;7.012;2023-02-19T01:13:36;6.87;;;6.17;;
6420;SDS011;3243;50.958;7.012;2023-02-19T01:18:33;6.10;;;5.50;;
6420;SDS011;3243;50.958;7.012;2023-02-19T01:21:04;6.00;;;5.40;;
6420;SDS011;3243;50.958;7.012;2023-02-19T01:23:38;6.37;;;5.60;;
6420;SDS011;3243;50.958;7.012;2023-02-19T01:26:05;6.43;;;5.10;;
6420;SDS011;3243;50.958;7.012;2023-02-19T01:28:33;5.87;;;5.27;;
6420;SDS011;3243;50.958;7.012;2023-02-19T01:31:01;5.77;;;5.17;;
6420;SDS011;3243;50.958;7.012;2023-02-19T01:33:30;7.63;;;5.40;;
6420;SDS011;3243;50.958;7.012;2023-02-19T01:35:57;5.90;;;5.23;;
6420;SDS011;3243;50.958;7.012;2023-02-19T01:38:24;7.80;;;5.43;;
6420;SDS011;3243;50.958;7.012;2023-02-19T01:40:54;6.33;;;4.80;;
6420;SDS011;3243;50.958;7.012;2023-02-19T01:43:32;7.90;;;5.33;;
6420;SDS011;3243;50.958;7.012;2023-02-19T01:46:00;9.57;;;5.93;;
6420;SDS011;3243;50.958;7.012;2023-02-19T01:53:38;7.30;;;5.67;;
6420;SDS011;3243;50.958;7.012;2023-02-19T01:56:12;5.70;;;5.20;;
6420;SDS011;3243;50.958;7.012;2023-02-19T01:58:40;6.00;;;5.30;;
6420;SDS011;3243;50.958;7.012;2023-02-19T02:01:07;8.10;;;5.40;;
6420;SDS011;3243;50.958;7.012;2023-02-19T02:03:35;7.13;;;5.07;;
6420;SDS011;3243;50.958;7.012;2023-02-19T02:06:04;5.80;;;4.63;;
6420;SDS011;3243;50.958;7.012;2023-02-19T02:08:49;5.70;;;4.33;;
6420;SDS011;3243;50.958;7.012;2023-02-19T02:11:37;6.30;;;4.83;;
6420;SDS011;3243;50.958;7.012;2023-02-19T02:14:09;6.97;;;4.97;;
6420;SDS011;3243;50.958;7.012;2023-02-19T02:16:41;5.40;;;4.90;;
6420;SDS011;3243;50.958;7.012;2023-02-19T02:22:20;5.60;;;5.00;;
6420;SDS011;3243;50.958;7.012;2023-02-19T02:27:37;7.50;;;6.17;;
6420;SDS011;3243;50.958;7.012;2023-02-19T02:32:59;7.90;;;6.10;;
6420;SDS011;3243;50.958;7.012;2023-02-19T02:35:43;6.53;;;5.57;;
6420;SDS011;3243;50.958;7.012;2023-02-19T02:38:19;7.67;;;5.80;;
6420;SDS011;3243;50.958;7.012;2023-02-19T02:40:48;7.87;;;6.07;;
6420;SDS011;3243;50.958;7.012;2023-02-19T02:43:16;9.17;;;6.00;;
6420;SDS011;3243;50.958;7.012;2023-02-19T02:45:43;9.47;;;6.00;;
6420;SDS011;3243;50.958;7.012;2023-02-19T02:51:05;7.93;;;6.20;;
6420;SDS011;3243;50.958;7.012;2023-02-19T02:56:31;7.10;;;5.73;;
6420;SDS011;3243;50.958;7.012;2023-02-19T02:59:00;8.30;;;5.97;;
6420;SDS011;3243;50.958;7.012;2023-02-19T03:01:30;8.47;;;5.90;;
6420;SDS011;3243;50.958;7.012;2023-02-19T03:04:25;9.13;;;5.77;;
6420;SDS011;3243;50.958;7.012;2023-02-19T03:06:59;8.37;;;5.97;;
6420;SDS011;3243;50.958;7.012;2023-02-19T03:09:37;9.93;;;5.90;;
6420;SDS011;3243;50.958;7.012;2023-02-19T03:12:10;10.00;;;6.47;;
6420;SDS011;3243;50.958;7.012;2023-02-19T03:15:00;7.57;;;5.97;;
6420;SDS011;3243;50.958;7.012;2023-02-19T03:17:51;10.67;;;6.20;;
6420;SDS011;3243;50.958;7.012;2023-02-19T03:20:40;10.40;;;6.90;;
6420;SDS011;3243;50.958;7.012;2023-02-19T03:23:11;9.90;;;7.37;;
6420;SDS011;3243;50.958;7.012;2023-02-19T03:25:41;9.07;;;7.07;;
6420;SDS011;3243;50.958;7.012;2023-02-19T03:28:27;9.63;;;7.40;;
6420;SDS011;3243;50.958;7.012;2023-02-19T03:31:17;14.17;;;7.87;;
6420;SDS011;3243;50.958;7.012;2023-02-19T03:33:46;10.60;;;7.73;;
6420;SDS011;3243;50.958;7.012;2023-02-19T03:36:19;10.93;;;7.20;;
6420;SDS011;3243;50.958;7.012;2023-02-19T03:38:53;12.67;;;8.90;;
6420;SDS011;3243;50.958;7.012;2023-02-19T03:47:04;11.73;;;8.57;;
6420;SDS011;3243;50.958;7.012;2023-02-19T03:55:11;11.57;;;8.93;;
6420;SDS011;3243;50.958;7.012;2023-02-19T04:00:26;10.90;;;8.50;;
6420;SDS011;3243;50.958;7.012;2023-02-19T04:03:16;12.37;;;8.83;;
6420;SDS011;3243;50.958;7.012;2023-02-19T04:05:54;13.93;;;8.87;;
6420;SDS011;3243;50.958;7.012;2023-02-19T04:11:05;12.93;;;9.00;;
6420;SDS011;3243;50.958;7.012;2023-02-19T04:13:57;16.07;;;9.10;;
6420;SDS011;3243;50.958;7.012;2023-02-19T04:16:30;13.10;;;9.33;;
6420;SDS011;3243;50.958;7.012;2023-02-19T04:19:01;13.37;;;8.40;;
6420;SDS011;3243;50.958;7.012;2023-02-19T04:21:39;14.20;;;9.50;;
6420;SDS011;3243;50.958;7.012;2023-02-19T04:24:11;15.33;;;9.43;;
6420;SDS011;3243;50.958;7.012;2023-02-19T04:26:41;10.90;;;8.47;;
6420;SDS011;3243;50.958;7.012;2023-02-19T04:29:10;14.87;;;9.43;;
6420;SDS011;3243;50.958;7.012;2023-02-19T04:31:36;16.20;;;10.10;;
6420;SDS011;3243;50.958;7.012;2023-02-19T04:34:04;15.90;;;10.03;;
6420;SDS011;3243;50.958;7.012;2023-02-19T04:36:31;18.27;;;10.67;;
6420;SDS011;3243;50.958;7.012;2023-02-19T04:38:58;15.93;;;10.43;;
6420;SDS011;3243;50.958;7.012;2023-02-19T04:41:25;17.40;;;10.73;;
6420;SDS011;3243;50.958;7.012;2023-02-19T04:43:51;17.77;;;11.53;;
6420;SDS011;3243;50.958;7.012;2023-02-19T04:46:18;18.77;;;10.80;;
6420;SDS011;3243;50.958;7.012;2023-02-19T04:48:45;17.30;;;11.63;;
6420;SDS011;3243;50.958;7.012;2023-02-19T04:51:12;18.57;;;12.33;;
6420;SDS011;3243;50.958;7.012;2023-02-19T04:53:38;18.63;;;12.13;;
6420;SDS011;3243;50.958;7.012;2023-02-19T04:56:09;18.60;;;12.03;;
6420;SDS011;3243;50.958;7.012;2023-02-19T04:58:40;17.83;;;12.43;;
6420;SDS011;3243;50.958;7.012;2023-02-19T05:01:08;19.60;;;11.20;;
6420;SDS011;3243;50.958;7.012;2023-02-19T05:03:36;19.40;;;12.33;;
6420;SDS011;3243;50.958;7.012;2023-02-19T05:06:04;19.80;;;11.87;;
6420;SDS011;3243;50.958;7.012;2023-02-19T05:08:33;17.73;;;11.97;;
6420;SDS011;3243;50.958;7.012;2023-02-19T05:11:00;17.67;;;12.37;;
6420;SDS011;3243;50.958;7.012;2023-02-19T05:13:29;20.80;;;12.93;;
6420;SDS011;3243;50.958;7.012;2023-02-19T05:15:57;19.73;;;13.10;;
6420;SDS011;3243;50.958;7.012;2023-02-19T05:18:25;16.40;;;11.83;;
6420;SDS011;3243;50.958;7.012;2023-02-19T05:20:53;20.53;;;12.47;;
6420;SDS011;3243;50.958;7.012;2023-02-19T05:23:19;22.80;;;13.63;;
6420;SDS011;3243;50.958;7.012;2023-02-19T05:25:46;19.67;;;13.97;;
6420;SDS011;3243;50.958;7.012;2023-02-19T05:28:13;21.83;;;12.57;;
6420;SDS011;3243;50.958;7.012;2023-02-19T05:33:10;20.37;;;13.13;;
6420;SDS011;3243;50.958;7.012;2023-02-19T05:35:42;16.50;;;13.03;;
6420;SDS011;3243;50.958;7.012;2023-02-19T05:38:11;19.57;;;13.63;;
6420;SDS011;3243;50.958;7.012;2023-02-19T05:40:38;23.83;;;14.90;;
6420;SDS011;3243;50.958;7.012;2023-02-19T05:43:06;19.27;;;14.47;;
6420;SDS011;3243;50.958;7.012;2023-02-19T05:45:33;18.33;;;13.50;;
6420;SDS011;3243;50.958;7.012;2023-02-19T05:48:01;19.80;;;13.83;;
6420;SDS011;3243;50.958;7.012;2023-02-19T05:50:28;23.83;;;14.87;;
6420;SDS011;3243;50.958;7.012;2023-02-19T05:52:58;20.00;;;13.30;;
6420;SDS011;3243;50.958;7.012;2023-02-19T05:55:27;18.80;;;13.10;;
6420;SDS011;3243;50.958;7.012;2023-02-19T05:57:54;21.57;;;13.77;;
6420;SDS011;3243;50.958;7.012;2023-02-19T06:00:21;20.97;;;13.33;;
6420;SDS011;3243;50.958;7.012;2023-02-19T06:02:48;20.90;;;14.37;;
6420;SDS011;3243;50.958;7.012;2023-02-19T06:05:15;19.57;;;14.40;;
6420;SDS011;3243;50.958;7.012;2023-02-19T06:07:41;19.87;;;14.30;;
6420;SDS011;3243;50.958;7.012;2023-02-19T06:10:09;21.00;;;14.13;;
6420;SDS011;3243;50.958;7.012;2023-02-19T06:12:37;23.73;;;14.50;;
6420;SDS011;3243;50.958;7.012;2023-02-19T06:15:04;20.17;;;15.23;;
6420;SDS011;3243;50.958;7.012;2023-02-19T06:17:32;21.37;;;15.00;;
6420;SDS011;3243;50.958;7.012;2023-02-19T06:19:59;20.27;;;15.57;;
6420;SDS011;3243;50.958;7.012;2023-02-19T06:22:26;25.70;;;17.50;;
6420;SDS011;3243;50.958;7.012;2023-02-19T06:24:53;30.70;;;18.17;;
6420;SDS011;3243;50.958;7.012;2023-02-19T06:27:20;24.27;;;18.30;;
6420;SDS011;3243;50.958;7.012;2023-02-19T06:29:47;24.40;;;17.87;;
6420;SDS011;3243;50.958;7.012;2023-02-19T06:32:14;23.83;;;17.67;;
6420;SDS011;3243;50.958;7.012;2023-02-19T06:34:41;26.17;;;18.63;;
6420;SDS011;3243;50.958;7.012;2023-02-19T06:37:07;29.03;;;19.37;;
6420;SDS011;3243;50.958;7.012;2023-02-19T06:39:34;23.87;;;18.27;;
6420;SDS011;3243;50.958;7.012;2023-02-19T06:42:01;28.93;;;17.23;;
6420;SDS011;3243;50.958;7.012;2023-02-19T06:44:28;25.87;;;17.40;;
6420;SDS011;3243;50.958;7.012;2023-02-19T06:46:54;29.20;;;16.53;;
6420;SDS011;3243;50.958;7.012;2023-02-19T06:49:21;21.77;;;15.50;;
6420;SDS011;3243;50.958;7.012;2023-02-19T06:51:48;27.03;;;16.50;;
6420;SDS011;3243;50.958;7.012;2023-02-19T06:54:14;23.67;;;14.80;;
6420;SDS011;3243;50.958;7.012;2023-02-19T06:56:41;25.57;;;14.97;;
6420;SDS011;3243;50.958;7.012;2023-02-19T06:59:12;22.03;;;14.73;;
6420;SDS011;3243;50.958;7.012;2023-02-19T07:01:42;20.70;;;14.93;;
6420;SDS011;3243;50.958;7.012;2023-02-19T07:04:09;21.90;;;13.93;;
6420;SDS011;3243;50.958;7.012;2023-02-19T07:06:36;21.50;;;14.03;;
6420;SDS011;3243;50.958;7.012;2023-02-19T07:09:04;20.97;;;14.53;;
6420;SDS011;3243;50.958;7.012;2023-02-19T07:11:32;23.10;;;13.97;;
6420;SDS011;3243;50.958;7.012;2023-02-19T07:14:01;23.13;;;14.47;;
6420;SDS011;3243;50.958;7.012;2023-02-19T07:16:29;21.83;;;13.50;;
6420;SDS011;3243;50.958;7.012;2023-02-19T07:18:57;22.90;;;13.23;;
6420;SDS011;3243;50.958;7.012;2023-02-19T07:21:24;19.17;;;12.80;;
6420;SDS011;3243;50.958;7.012;2023-02-19T07:23:51;20.30;;;11.50;;
6420;SDS011;3243;50.958;7.012;2023-02-19T07:26:19;19.30;;;11.87;;
6420;SDS011;3243;50.958;7.012;2023-02-19T07:28:47;19.87;;;12.13;;
6420;SDS011;3243;50.958;7.012;2023-02-19T07:31:15;19.20;;;11.40;;
6420;SDS011;3243;50.958;7.012;2023-02-19T07:33:43;17.70;;;12.20;;
6420;SDS011;3243;50.958;7.012;2023-02-19T07:36:17;15.90;;;10.70;;
6420;SDS011;3243;50.958;7.012;2023-02-19T07:38:44;16.50;;;11.00;;
6420;SDS011;3243;50.958;7.012;2023-02-19T07:41:12;17.80;;;10.50;;
6420;SDS011;3243;50.958;7.012;2023-02-19T07:43:39;18.70;;;10.03;;
6420;SDS011;3243;50.958;7.012;2023-02-19T07:46:06;15.57;;;9.90;;
6420;SDS011;3243;50.958;7.012;2023-02-19T07:48:35;16.83;;;9.87;;
6420;SDS011;3243;50.958;7.012;2023-02-19T07:51:03;15.70;;;9.70;;
6420;SDS011;3243;50.958;7.012;2023-02-19T07:53:32;16.33;;;9.67;;
6420;SDS011;3243;50.958;7.012;2023-02-19T07:56:00;14.97;;;8.93;;
6420;SDS011;3243;50.958;7.012;2023-02-19T07:58:28;17.30;;;10.20;;
6420;SDS011;3243;50.958;7.012;2023-02-19T08:00:56;16.60;;;10.90;;
6420;SDS011;3243;50.958;7.012;2023-02-19T08:03:23;16.57;;;10.67;;
6420;SDS011;3243;50.958;7.012;2023-02-19T08:05:49;21.00;;;10.87;;
6420;SDS011;3243;50.958;7.012;2023-02-19T08:08:18;22.47;;;11.67;;
6420;SDS011;3243;50.958;7.012;2023-02-19T08:10:45;16.67;;;9.97;;
6420;SDS011;3243;50.958;7.012;2023-02-19T08:13:46;18.13;;;10.20;;
6420;SDS011;3243;50.958;7.012;2023-02-19T08:16:15;19.73;;;10.20;;
6420;SDS011;3243;50.958;7.012;2023-02-19T08:18:58;22.90;;;10.90;;
6420;SDS011;3243;50.958;7.012;2023-02-19T08:21:25;17.23;;;10.40;;
6420;SDS011;3243;50.958;7.012;2023-02-19T08:23:52;26.27;;;13.67;;
6420;SDS011;3243;50.958;7.012;2023-02-19T08:26:18;19.40;;;12.07;;
6420;SDS011;3243;50.958;7.012;2023-02-19T08:28:45;23.20;;;13.00;;
6420;SDS011;3243;50.958;7.012;2023-02-19T08:31:13;20.50;;;12.20;;
6420;SDS011;3243;50.958;7.012;2023-02-19T08:33:40;22.07;;;12.50;;
6420;SDS011;3243;50.958;7.012;2023-02-19T08:36:07;17.90;;;10.87;;
6420;SDS011;3243;50.958;7.012;2023-02-19T08:38:36;18.77;;;11.13;;
6420;SDS011;3243;50.958;7.012;2023-02-19T08:41:07;17.50;;;10.90;;
6420;SDS011;3243;50.958;7.012;2023-02-19T08:43:36;19.90;;;11.00;;
6420;SDS011;3243;50.958;7.012;2023-02-19T08:46:03;17.17;;;9.13;;
6420;SDS011;3243;50.958;7.012;2023-02-19T08:48:32;18.93;;;9.90;;
6420;SDS011;3243;50.958;7.012;2023-02-19T08:50:59;19.53;;;8.97;;
6420;SDS011;3243;50.958;7.012;2023-02-19T08:53:30;18.77;;;9.00;;
6420;SDS011;3243;50.958;7.012;2023-02-19T08:55:57;20.37;;;9.20;;
6420;SDS011;3243;50.958;7.012;2023-02-19T08:58:24;16.17;;;8.57;;
6420;SDS011;3243;50.958;7.012;2023-02-19T09:00:51;15.30;;;7.83;;
6420;SDS011;3243;50.958;7.012;2023-02-19T09:03:19;18.43;;;8.63;;
6420;SDS011;3243;50.958;7.012;2023-02-19T09:05:46;15.07;;;9.17;;
6420;SDS011;3243;50.958;7.012;2023-02-19T09:08:13;16.20;;;8.33;;
6420;SDS011;3243;50.958;7.012;2023-02-19T09:10:40;12.97;;;7.80;;
6420;SDS011;3243;50.958;7.012;2023-02-19T09:13:07;15.30;;;7.90;;
6420;SDS011;3243;50.958;7.012;2023-02-19T09:15:34;12.07;;;7.43;;
6420;SDS011;3243;50.958;7.012;2023-02-19T09:18:03;16.40;;;7.17;;
6420;SDS011;3243;50.958;7.012;2023-02-19T09:20:30;16.60;;;7.90;;
6420;SDS011;3243;50.958;7.012;2023-02-19T09:22:57;12.87;;;7.10;;
6420;SDS011;3243;50.958;7.012;2023-02-19T09:25:24;15.77;;;7.63;;
6420;SDS011;3243;50.958;7.012;2023-02-19T09:27:54;17.83;;;7.70;;
6420;SDS011;3243;50.958;7.012;2023-02-19T09:30:22;11.77;;;7.33;;
6420;SDS011;3243;50.958;7.012;2023-02-19T09:32:49;16.10;;;7.67;;
6420;SDS011;3243;50.958;7.012;2023-02-19T09:35:16;14.60;;;7.80;;
6420;SDS011;3243;50.958;7.012;2023-02-19T09:37:43;15.43;;;6.90;;
6420;SDS011;3243;50.958;7.012;2023-02-19T09:40:09;13.97;;;6.60;;
6420;SDS011;3243;50.958;7.012;2023-02-19T09:42:36;14.40;;;6.50;;
6420;SDS011;3243;50.958;7.012;2023-02-19T09:45:09;9.67;;;5.50;;
6420;SDS011;3243;50.958;7.012;2023-02-19T09:47:43;11.57;;;5.77;;
6420;SDS011;3243;50.958;7.012;2023-02-19T09:50:11;12.10;;;5.70;;
6420;SDS011;3243;50.958;7.012;2023-02-19T09:52:43;9.57;;;4.90;;
6420;SDS011;3243;50.958;7.012;2023-02-19T09:55:13;10.27;;;5.23;;
6420;SDS011;3243;50.958;7.012;2023-02-19T09:57:43;12.80;;;5.43;;
6420;SDS011;3243;50.958;7.012;2023-02-19T10:00:21;12.63;;;5.90;;
6420;SDS011;3243;50.958;7.012;2023-02-19T10:02:51;11.03;;;5.27;;
6420;SDS011;3243;50.958;7.012;2023-02-19T10:05:20;12.50;;;5.20;;
6420;SDS011;3243;50.958;7.012;2023-02-19T10:07:50;10.23;;;5.17;;
6420;SDS011;3243;50.958;7.012;2023-02-19T10:10:29;9.87;;;4.90;;
6420;SDS011;3243;50.958;7.012;2023-02-19T10:13:04;11.77;;;5.30;;
6420;SDS011;3243;50.958;7.012;2023-02-19T10:15:38;8.40;;;4.53;;
6420;SDS011;3243;50.958;7.012;2023-02-19T10:18:11;10.60;;;5.17;;
6420;SDS011;3243;50.958;7.012;2023-02-19T10:20:42;10.90;;;4.93;;
6420;SDS011;3243;50.958;7.012;2023-02-19T10:23:09;10.27;;;5.10;;
6420;SDS011;3243;50.958;7.012;2023-02-19T10:25:40;9.70;;;5.40;;
6420;SDS011;3243;50.958;7.012;2023-02-19T10:28:12;11.37;;;5.33;;
6420;SDS011;3243;50.958;7.012;2023-02-19T10:30:42;11.33;;;5.53;;
6420;SDS011;3243;50.958;7.012;2023-02-19T10:38:30;10.97;;;5.00;;
6420;SDS011;3243;50.958;7.012;2023-02-19T10:41:13;8.03;;;5.23;;
6420;SDS011;3243;50.958;7.012;2023-02-19T10:43:44;13.33;;;5.20;;
6420;SDS011;3243;50.958;7.012;2023-02-19T10:46:32;9.03;;;5.10;;
6420;SDS011;3243;50.958;7.012;2023-02-19T10:49:19;10.27;;;5.23;;
6420;SDS011;3243;50.958;7.012;2023-02-19T10:51:51;9.30;;;5.87;;
6420;SDS011;3243;50.958;7.012;2023-02-19T10:57:22;8.70;;;5.27;;
6420;SDS011;3243;50.958;7.012;2023-02-19T11:00:00;10.10;;;5.37;;
6420;SDS011;3243;50.958;7.012;2023-02-19T11:02:44;9.93;;;5.70;;
6420;SDS011;3243;50.958;7.012;2023-02-19T11:07:49;10.63;;;6.20;;
6420;SDS011;3243;50.958;7.012;2023-02-19T11:12:56;11.37;;;6.40;;
6420;SDS011;3243;50.958;7.012;2023-02-19T11:15:30;8.97;;;6.10;;
6420;SDS011;3243;50.958;7.012;2023-02-19T11:23:56;6.43;;;5.67;;
6420;SDS011;3243;50.958;7.012;2023-02-19T11:26:19;6.80;;;5.40;;
6420;SDS011;3243;50.958;7.012;2023-02-19T11:28:56;11.57;;;5.93;;
6420;SDS011;3243;50.958;7.012;2023-02-19T11:31:28;9.33;;;5.53;;
6420;SDS011;3243;50.958;7.012;2023-02-19T11:34:01;8.67;;;5.60;;
6420;SDS011;3243;50.958;7.012;2023-02-19T11:37:13;10.27;;;5.37;;
6420;SDS011;3243;50.958;7.012;2023-02-19T11:39:43;7.60;;;5.60;;
6420;SDS011;3243;50.958;7.012;2023-02-19T11:47:44;7.93;;;4.80;;
6420;SDS011;3243;50.958;7.012;2023-02-19T12:06:45;8.20;;;4.97;;
6420;SDS011;3243;50.958;7.012;2023-02-19T12:09:35;6.90;;;4.47;;
6420;SDS011;3243;50.958;7.012;2023-02-19T12:12:36;9.40;;;4.70;;
6420;SDS011;3243;50.958;7.012;2023-02-19T12:23:46;9.93;;;6.50;;
6420;SDS011;3243;50.958;7.012;2023-02-19T12:26:58;10.30;;;6.53;;
6420;SDS011;3243;50.958;7.012;2023-02-19T12:45:30;8.43;;;4.63;;
6420;SDS011;3243;50.958;7.012;2023-02-19T12:54:01;7.07;;;4.00;;
6420;SDS011;3243;50.958;7.012;2023-02-19T12:56:42;6.00;;;3.70;;
6420;SDS011;3243;50.958;7.012;2023-02-19T13:04:44;7.53;;;4.23;;
6420;SDS011;3243;50.958;7.012;2023-02-19T13:10:28;7.03;;;4.60;;
6420;SDS011;3243;50.958;7.012;2023-02-19T13:13:05;6.60;;;4.07;;
6420;SDS011;3243;50.958;7.012;2023-02-19T13:15:39;5.60;;;3.30;;
6420;SDS011;3243;50.958;7.012;2023-02-19T13:18:19;5.27;;;3.30;;
6420;SDS011;3243;50.958;7.012;2023-02-19T13:20:51;7.43;;;3.43;;
6420;SDS011;3243;50.958;7.012;2023-02-19T13:28:51;6.00;;;3.80;;
6420;SDS011;3243;50.958;7.012;2023-02-19T13:36:59;5.67;;;4.10;;
6420;SDS011;3243;50.958;7.012;2023-02-19T13:39:27;7.87;;;4.30;;
6420;SDS011;3243;50.958;7.012;2023-02-19T13:41:56;10.97;;;4.90;;
6420;SDS011;3243;50.958;7.012;2023-02-19T13:44:27;6.40;;;4.03;;
6420;SDS011;3243;50.958;7.012;2023-02-19T13:46:56;5.10;;;3.60;;
6420;SDS011;3243;50.958;7.012;2023-02-19T13:49:32;4.37;;;3.23;;
6420;SDS011;3243;50.958;7.012;2023-02-19T14:01:09;5.90;;;4.60;;
6420;SDS011;3243;50.958;7.012;2023-02-19T14:06:12;4.73;;;3.03;;
6420;SDS011;3243;50.958;7.012;2023-02-19T14:16:55;7.07;;;4.40;;
6420;SDS011;3243;50.958;7.012;2023-02-19T14:25:42;6.20;;;5.10;;
6420;SDS011;3243;50.958;7.012;2023-02-19T14:31:07;6.23;;;5.60;;
6420;SDS011;3243;50.958;7.012;2023-02-19T14:33:39;7.60;;;5.83;;
6420;SDS011;3243;50.958;7.012;2023-02-19T14:38:39;9.80;;;5.80;;
6420;SDS011;3243;50.958;7.012;2023-02-19T14:41:12;8.83;;;5.87;;
6420;SDS011;3243;50.958;7.012;2023-02-19T14:43:41;8.43;;;6.10;;
6420;SDS011;3243;50.958;7.012;2023-02-19T14:46:16;9.90;;;7.10;;
6420;SDS011;3243;50.958;7.012;2023-02-19T14:48:54;8.93;;;6.07;;
6420;SDS011;3243;50.958;7.012;2023-02-19T14:51:37;8.67;;;5.70;;
6420;SDS011;3243;50.958;7.012;2023-02-19T14:54:17;8.97;;;5.93;;
6420;SDS011;3243;50.958;7.012;2023-02-19T14:56:51;8.73;;;6.13;;
6420;SDS011;3243;50.958;7.012;2023-02-19T15:01:45;9.30;;;6.53;;
6420;SDS011;3243;50.958;7.012;2023-02-19T15:04:26;14.80;;;7.03;;
6420;SDS011;3243;50.958;7.012;2023-02-19T15:06:56;10.57;;;6.73;;
6420;SDS011;3243;50.958;7.012;2023-02-19T15:09:35;8.67;;;6.53;;
6420;SDS011;3243;50.958;7.012;2023-02-19T15:12:06;12.07;;;6.97;;
6420;SDS011;3243;50.958;7.012;2023-02-19T15:14:38;15.13;;;7.27;;
6420;SDS011;3243;50.958;7.012;2023-02-19T15:17:05;9.97;;;6.93;;
6420;SDS011;3243;50.958;7.012;2023-02-19T15:19:33;10.30;;;7.27;;
6420;SDS011;3243;50.958;7.012;2023-02-19T15:22:01;11.80;;;7.90;;
6420;SDS011;3243;50.958;7.012;2023-02-19T15:24:28;15.27;;;8.00;;
6420;SDS011;3243;50.958;7.012;2023-02-19T15:26:55;11.63;;;7.90;;
6420;SDS011;3243;50.958;7.012;2023-02-19T15:29:23;10.87;;;8.07;;
6420;SDS011;3243;50.958;7.012;2023-02-19T15:31:56;14.03;;;8.57;;
6420;SDS011;3243;50.958;7.012;2023-02-19T15:34:26;12.77;;;8.50;;
6420;SDS011;3243;50.958;7.012;2023-02-19T15:37:01;14.40;;;8.93;;
6420;SDS011;3243;50.958;7.012;2023-02-19T15:39:33;18.87;;;9.43;;
6420;SDS011;3243;50.958;7.012;2023-02-19T15:42:20;10.83;;;8.10;;
6420;SDS011;3243;50.958;7.012;2023-02-19T15:47:25;14.97;;;9.83;;
6420;SDS011;3243;50.958;7.012;2023-02-19T15:50:06;15.37;;;9.63;;
6420;SDS011;3243;50.958;7.012;2023-02-19T15:52:44;15.73;;;9.67;;
6420;SDS011;3243;50.958;7.012;2023-02-19T16:03:19;13.30;;;9.80;;
6420;SDS011;3243;50.958;7.012;2023-02-19T16:08:40;13.90;;;9.63;;
6420;SDS011;3243;50.958;7.012;2023-02-19T16:16:43;13.63;;;9.00;;
6420;SDS011;3243;50.958;7.012;2023-02-19T16:19:12;15.83;;;8.50;;
6420;SDS011;3243;50.958;7.012;2023-02-19T16:21:44;11.43;;;7.90;;
6420;SDS011;3243;50.958;7.012;2023-02-19T16:24:12;13.27;;;8.30;;
6420;SDS011;3243;50.958;7.012;2023-02-19T16:26:56;13.50;;;9.20;;
6420;SDS011;3243;50.958;7.012;2023-02-19T16:29:27;16.00;;;9.23;;
6420;SDS011;3243;50.958;7.012;2023-02-19T16:31:57;12.87;;;8.53;;
6420;SDS011;3243;50.958;7.012;2023-02-19T16:37:28;15.97;;;9.30;;
6420;SDS011;3243;50.958;7.012;2023-02-19T16:42:33;12.27;;;8.47;;
6420;SDS011;3243;50.958;7.012;2023-02-19T16:45:01;14.83;;;9.20;;
6420;SDS011;3243;50.958;7.012;2023-02-19T16:47:31;17.77;;;9.10;;
6420;SDS011;3243;50.958;7.012;2023-02-19T16:50:03;12.13;;;8.23;;
6420;SDS011;3243;50.958;7.012;2023-02-19T16:52:48;16.77;;;9.43;;
6420;SDS011;3243;50.958;7.012;2023-02-19T16:55:19;13.10;;;8.60;;
6420;SDS011;3243;50.958;7.012;2023-02-19T16:57:47;14.07;;;8.63;;
6420;SDS011;3243;50.958;7.012;2023-02-19T17:00:21;12.30;;;9.63;;
6420;SDS011;3243;50.958;7.012;2023-02-19T17:02:57;15.77;;;9.63;;
6420;SDS011;3243;50.958;7.012;2023-02-19T17:05:28;14.97;;;9.30;;
6420;SDS011;3243;50.958;7.012;2023-02-19T17:07:57;12.60;;;9.87;;
6420;SDS011;3243;50.958;7.012;2023-02-19T17:10:24;17.17;;;9.53;;
6420;SDS011;3243;50.958;7.012;2023-02-19T17:12:52;16.90;;;10.10;;
6420;SDS011;3243;50.958;7.012;2023-02-19T17:15:20;14.57;;;10.13;;
6420;SDS011;3243;50.958;7.012;2023-02-19T17:17:47;16.33;;;10.20;;
6420;SDS011;3243;50.958;7.012;2023-02-19T17:22:41;16.47;;;11.10;;
6420;SDS011;3243;50.958;7.012;2023-02-19T17:25:09;16.53;;;10.73;;
6420;SDS011;3243;50.958;7.012;2023-02-19T17:27:35;18.47;;;10.97;;
6420;SDS011;3243;50.958;7.012;2023-02-19T17:30:02;17.03;;;11.10;;
6420;SDS011;3243;50.958;7.012;2023-02-19T17:32:35;16.57;;;11.93;;
6420;SDS011;3243;50.958;7.012;2023-02-19T17:35:01;16.90;;;10.50;;
6420;SDS011;3243;50.958;7.012;2023-02-19T17:37:31;11.20;;;8.57;;
6420;SDS011;3243;50.958;7.012;2023-02-19T17:39:58;11.50;;;8.03;;
6420;SDS011;3243;50.958;7.012;2023-02-19T17:42:24;8.90;;;6.20;;
6420;SDS011;3243;50.958;7.012;2023-02-19T17:44:51;9.87;;;6.17;;
6420;SDS011;3243;50.958;7.012;2023-02-19T17:47:19;4.93;;;3.77;;
6420;SDS011;3243;50.958;7.012;2023-02-19T17:49:46;10.37;;;5.27;;
6420;SDS011;3243;50.958;7.012;2023-02-19T17:52:13;4.27;;;3.67;;
6420;SDS011;3243;50.958;7.012;2023-02-19T17:54:42;4.07;;;3.30;;
6420;SDS011;3243;50.958;7.012;2023-02-19T17:57:09;4.17;;;3.07;;
6420;SDS011;3243;50.958;7.012;2023-02-19T17:59:36;4.23;;;3.37;;
6420;SDS011;3243;50.958;7.012;2023-02-19T18:02:02;4.30;;;3.10;;
6420;SDS011;3243;50.958;7.012;2023-02-19T18:04:29;6.60;;;3.60;;
6420;SDS011;3243;50.958;7.012;2023-02-19T18:06:56;6.70;;;3.80;;
6420;SDS011;3243;50.958;7.012;2023-02-19T18:09:23;5.80;;;3.47;;
6420;SDS011;3243;50.958;7.012;2023-02-19T18:11:50;4.63;;;3.60;;
6420;SDS011;3243;50.958;7.012;2023-02-19T18:14:17;7.50;;;4.97;;
6420;SDS011;3243;50.958;7.012;2023-02-19T18:16:44;10.50;;;6.60;;
6420;SDS011;3243;50.958;7.012;2023-02-19T18:19:15;8.50;;;5.20;;
6420;SDS011;3243;50.958;7.012;2023-02-19T18:21:42;5.63;;;3.30;;
6420;SDS011;3243;50.958;7.012;2023-02-19T18:24:09;5.30;;;2.80;;
6420;SDS011;3243;50.958;7.012;2023-02-19T18:26:36;3.40;;;2.40;;
6420;SDS011;3243;50.958;7.012;2023-02-19T18:29:04;2.67;;;2.40;;
6420;SDS011;3243;50.958;7.012;2023-02-19T18:31:31;3.97;;;2.70;;
6420;SDS011;3243;50.958;7.012;2023-02-19T18:33:58;8.13;;;5.03;;
6420;SDS011;3243;50.958;7.012;2023-02-19T18:36:25;6.90;;;5.07;;
6420;SDS011;3243;50.958;7.012;2023-02-19T18:38:52;6.63;;;4.30;;